sensor_id;sensor_type;location;lat;lon;timestamp;temperature;humidity
3752;DHT22;50827;47.014;7.652;2022-12-29T00:01:41;3.80;99.90
3752;DHT22;50827;47.014;7.652;2022-12-29T00:04:12;3.90;99.90
3752;DHT22;50827;47.014;7.652;2022-12-29T00:06:42;3.90;99.90
3752;DHT22;50827;47.014;7.652;2022-12-29T00:09:11;4.00;99.90
3752;DHT22;50827;47.014;7.652;2022-12-29T00:11:39;3.90;99.90
3752;DHT22;50827;47.014;7.652;2022-12-29T00:14:06;3.90;99.90
3752;DHT22;50827;47.014;7.652;2022-12-29T00:16:51;3.90;99.90
3752;DHT22;50827;47.014;7.652;2022-12-29T00:19:18;3.90;99.90
3752;DHT22;50827;47.014;7.652;2022-12-29T00:22:04;3.90;99.90
3752;DHT22;50827;47.014;7.652;2022-12-29T00:24:49;3.90;99.90
3752;DHT22;50827;47.014;7.652;2022-12-29T00:27:35;3.90;99.90
3752;DHT22;50827;47.014;7.652;2022-12-29T00:30:22;3.90;99.90
3752;DHT22;50827;47.014;7.652;2022-12-29T00:33:12;3.90;99.90
3752;DHT22;50827;47.014;7.652;2022-12-29T00:36:32;3.80;99.90
3752;DHT22;50827;47.014;7.652;2022-12-29T00:39:05;3.80;99.90
3752;DHT22;50827;47.014;7.652;2022-12-29T00:41:53;3.70;99.90
3752;DHT22;50827;47.014;7.652;2022-12-29T00:44:38;3.70;99.90
3752;DHT22;50827;47.014;7.652;2022-12-29T00:47:04;3.60;99.90
3752;DHT22;50827;47.014;7.652;2022-12-29T00:49:32;3.60;99.90
3752;DHT22;50827;47.014;7.652;2022-12-29T00:52:10;3.60;99.90
3752;DHT22;50827;47.014;7.652;2022-12-29T00:54:38;3.70;99.90
3752;DHT22;50827;47.014;7.652;2022-12-29T00:57:06;3.70;99.90
3752;DHT22;50827;47.014;7.652;2022-12-29T00:59:41;3.80;99.90
3752;DHT22;50827;47.014;7.652;2022-12-29T01:02:08;3.80;99.90
3752;DHT22;50827;47.014;7.652;2022-12-29T01:04:36;3.80;99.90
3752;DHT22;50827;47.014;7.652;2022-12-29T01:07:03;3.80;99.90
3752;DHT22;50827;47.014;7.652;2022-12-29T01:09:30;3.80;99.90
3752;DHT22;50827;47.014;7.652;2022-12-29T01:12:16;3.80;99.90
3752;DHT22;50827;47.014;7.652;2022-12-29T01:14:43;3.80;99.90
3752;DHT22;50827;47.014;7.652;2022-12-29T01:17:10;3.90;99.90
3752;DHT22;50827;47.014;7.652;2022-12-29T01:19:37;3.90;99.90
3752;DHT22;50827;47.014;7.652;2022-12-29T01:22:03;4.00;99.90
3752;DHT22;50827;47.014;7.652;2022-12-29T01:24:30;4.00;99.90
3752;DHT22;50827;47.014;7.652;2022-12-29T01:26:56;3.90;99.90
3752;DHT22;50827;47.014;7.652;2022-12-29T01:29:23;4.00;99.90
3752;DHT22;50827;47.014;7.652;2022-12-29T01:31:50;4.00;99.90
3752;DHT22;50827;47.014;7.652;2022-12-29T01:34:17;4.00;99.90
3752;DHT22;50827;47.014;7.652;2022-12-29T01:36:44;4.10;99.90
3752;DHT22;50827;47.014;7.652;2022-12-29T01:39:11;4.10;99.90
3752;DHT22;50827;47.014;7.652;2022-12-29T01:41:38;4.10;99.90
3752;DHT22;50827;47.014;7.652;2022-12-29T01:47:10;4.20;99.90
3752;DHT22;50827;47.014;7.652;2022-12-29T01:49:37;4.20;99.90
3752;DHT22;50827;47.014;7.652;2022-12-29T01:52:06;4.20;99.90
3752;DHT22;50827;47.014;7.652;2022-12-29T01:54:41;4.20;99.90
3752;DHT22;50827;47.014;7.652;2022-12-29T01:57:16;4.20;99.90
3752;DHT22;50827;47.014;7.652;2022-12-29T01:59:53;4.20;99.90
3752;DHT22;50827;47.014;7.652;2022-12-29T02:02:23;4.10;99.90
3752;DHT22;50827;47.014;7.652;2022-12-29T02:04:52;4.20;99.90
3752;DHT22;50827;47.014;7.652;2022-12-29T02:07:21;4.20;99.90
3752;DHT22;50827;47.014;7.652;2022-12-29T02:09:49;4.20;99.90
3752;DHT22;50827;47.014;7.652;2022-12-29T02:12:19;4.20;99.90
3752;DHT22;50827;47.014;7.652;2022-12-29T02:14:48;4.30;99.90
3752;DHT22;50827;47.014;7.652;2022-12-29T02:26:42;4.30;99.90
3752;DHT22;50827;47.014;7.652;2022-12-29T02:33:11;4.30;99.90
3752;DHT22;50827;47.014;7.652;2022-12-29T02:35:44;4.30;99.90
3752;DHT22;50827;47.014;7.652;2022-12-29T02:44:01;4.30;99.90
3752;DHT22;50827;47.014;7.652;2022-12-29T02:46:38;4.30;99.90
3752;DHT22;50827;47.014;7.652;2022-12-29T02:49:19;4.30;99.90
3752;DHT22;50827;47.014;7.652;2022-12-29T02:51:59;4.40;99.90
3752;DHT22;50827;47.014;7.652;2022-12-29T02:54:27;4.30;99.90
3752;DHT22;50827;47.014;7.652;2022-12-29T02:59:51;4.30;99.90
3752;DHT22;50827;47.014;7.652;2022-12-29T03:02:35;4.30;99.90
3752;DHT22;50827;47.014;7.652;2022-12-29T03:05:30;4.30;99.90
3752;DHT22;50827;47.014;7.652;2022-12-29T03:13:49;4.30;99.90
3752;DHT22;50827;47.014;7.652;2022-12-29T03:16:58;4.50;99.90
3752;DHT22;50827;47.014;7.652;2022-12-29T03:19:45;4.50;99.90
3752;DHT22;50827;47.014;7.652;2022-12-29T03:22:25;4.60;99.90
3752;DHT22;50827;47.014;7.652;2022-12-29T03:25:02;4.60;99.90
3752;DHT22;50827;47.014;7.652;2022-12-29T03:27:36;4.60;99.90
3752;DHT22;50827;47.014;7.652;2022-12-29T03:30:05;4.60;99.90
3752;DHT22;50827;47.014;7.652;2022-12-29T03:32:50;4.70;99.90
3752;DHT22;50827;47.014;7.652;2022-12-29T03:35:22;4.60;99.90
3752;DHT22;50827;47.014;7.652;2022-12-29T03:38:11;4.60;99.90
3752;DHT22;50827;47.014;7.652;2022-12-29T03:40:46;4.60;99.90
3752;DHT22;50827;47.014;7.652;2022-12-29T03:43:15;4.60;99.90
3752;DHT22;50827;47.014;7.652;2022-12-29T03:45:43;4.70;99.90
3752;DHT22;50827;47.014;7.652;2022-12-29T03:48:10;4.70;99.90
3752;DHT22;50827;47.014;7.652;2022-12-29T03:50:37;4.70;99.90
3752;DHT22;50827;47.014;7.652;2022-12-29T03:53:04;4.70;99.90
3752;DHT22;50827;47.014;7.652;2022-12-29T03:55:30;4.70;99.90
3752;DHT22;50827;47.014;7.652;2022-12-29T03:57:57;4.70;99.90
3752;DHT22;50827;47.014;7.652;2022-12-29T04:00:24;4.70;99.90
3752;DHT22;50827;47.014;7.652;2022-12-29T04:02:50;4.70;99.90
3752;DHT22;50827;47.014;7.652;2022-12-29T04:05:17;4.80;99.90
3752;DHT22;50827;47.014;7.652;2022-12-29T04:07:44;4.80;99.90
3752;DHT22;50827;47.014;7.652;2022-12-29T04:10:10;4.80;99.90
3752;DHT22;50827;47.014;7.652;2022-12-29T04:12:37;4.80;99.90
3752;DHT22;50827;47.014;7.652;2022-12-29T04:15:05;4.90;99.90
3752;DHT22;50827;47.014;7.652;2022-12-29T04:17:32;4.90;99.90
3752;DHT22;50827;47.014;7.652;2022-12-29T04:19:59;4.90;99.90
3752;DHT22;50827;47.014;7.652;2022-12-29T04:22:44;4.90;99.90
3752;DHT22;50827;47.014;7.652;2022-12-29T04:25:11;4.80;99.90
3752;DHT22;50827;47.014;7.652;2022-12-29T04:27:38;4.90;99.90
3752;DHT22;50827;47.014;7.652;2022-12-29T04:30:05;4.90;99.90
3752;DHT22;50827;47.014;7.652;2022-12-29T04:32:31;4.90;99.90
3752;DHT22;50827;47.014;7.652;2022-12-29T04:34:58;4.90;99.90
3752;DHT22;50827;47.014;7.652;2022-12-29T04:37:25;4.80;99.90
3752;DHT22;50827;47.014;7.652;2022-12-29T04:39:51;4.80;99.90
3752;DHT22;50827;47.014;7.652;2022-12-29T04:42:18;4.90;99.90
3752;DHT22;50827;47.014;7.652;2022-12-29T04:44:45;4.80;99.90
3752;DHT22;50827;47.014;7.652;2022-12-29T04:47:11;4.90;99.90
3752;DHT22;50827;47.014;7.652;2022-12-29T04:49:38;4.90;99.90
3752;DHT22;50827;47.014;7.652;2022-12-29T04:52:04;4.90;99.90
3752;DHT22;50827;47.014;7.652;2022-12-29T04:54:31;5.00;99.90
3752;DHT22;50827;47.014;7.652;2022-12-29T04:56:58;4.90;99.90
3752;DHT22;50827;47.014;7.652;2022-12-29T04:59:25;4.90;99.90
3752;DHT22;50827;47.014;7.652;2022-12-29T05:01:51;4.90;99.90
3752;DHT22;50827;47.014;7.652;2022-12-29T05:04:18;4.90;99.90
3752;DHT22;50827;47.014;7.652;2022-12-29T05:06:45;5.00;99.90
3752;DHT22;50827;47.014;7.652;2022-12-29T05:09:11;5.00;99.90
3752;DHT22;50827;47.014;7.652;2022-12-29T05:11:38;5.00;99.90
3752;DHT22;50827;47.014;7.652;2022-12-29T05:14:04;5.00;99.90
3752;DHT22;50827;47.014;7.652;2022-12-29T05:16:31;5.00;99.90
3752;DHT22;50827;47.014;7.652;2022-12-29T05:18:58;5.10;99.90
3752;DHT22;50827;47.014;7.652;2022-12-29T05:21:24;5.10;99.90
3752;DHT22;50827;47.014;7.652;2022-12-29T05:23:51;5.10;99.90
3752;DHT22;50827;47.014;7.652;2022-12-29T05:26:18;5.10;99.90
3752;DHT22;50827;47.014;7.652;2022-12-29T05:28:44;5.20;99.90
3752;DHT22;50827;47.014;7.652;2022-12-29T05:31:11;5.20;99.90
3752;DHT22;50827;47.014;7.652;2022-12-29T05:33:37;5.30;99.90
3752;DHT22;50827;47.014;7.652;2022-12-29T05:36:06;5.30;99.90
3752;DHT22;50827;47.014;7.652;2022-12-29T05:38:34;5.40;99.90
3752;DHT22;50827;47.014;7.652;2022-12-29T05:41:01;5.40;99.90
3752;DHT22;50827;47.014;7.652;2022-12-29T05:43:28;5.40;99.90
3752;DHT22;50827;47.014;7.652;2022-12-29T05:45:56;5.40;99.90
3752;DHT22;50827;47.014;7.652;2022-12-29T05:48:23;5.50;99.90
3752;DHT22;50827;47.014;7.652;2022-12-29T05:50:51;5.60;99.90
3752;DHT22;50827;47.014;7.652;2022-12-29T05:53:18;5.70;99.90
3752;DHT22;50827;47.014;7.652;2022-12-29T05:55:48;5.80;99.90
3752;DHT22;50827;47.014;7.652;2022-12-29T05:58:16;5.90;99.90
3752;DHT22;50827;47.014;7.652;2022-12-29T06:00:43;6.10;99.90
3752;DHT22;50827;47.014;7.652;2022-12-29T06:03:10;6.10;99.90
3752;DHT22;50827;47.014;7.652;2022-12-29T06:05:37;6.20;99.90
3752;DHT22;50827;47.014;7.652;2022-12-29T06:08:03;6.30;99.90
3752;DHT22;50827;47.014;7.652;2022-12-29T06:10:30;6.30;99.90
3752;DHT22;50827;47.014;7.652;2022-12-29T06:12:57;6.40;99.90
3752;DHT22;50827;47.014;7.652;2022-12-29T06:15:24;6.60;99.90
3752;DHT22;50827;47.014;7.652;2022-12-29T06:17:51;6.70;99.90
3752;DHT22;50827;47.014;7.652;2022-12-29T06:20:17;6.80;99.90
3752;DHT22;50827;47.014;7.652;2022-12-29T06:22:44;6.90;99.90
3752;DHT22;50827;47.014;7.652;2022-12-29T06:25:11;7.00;99.90
3752;DHT22;50827;47.014;7.652;2022-12-29T06:27:38;7.20;99.90
3752;DHT22;50827;47.014;7.652;2022-12-29T06:30:05;7.40;99.90
3752;DHT22;50827;47.014;7.652;2022-12-29T06:32:32;7.40;99.90
3752;DHT22;50827;47.014;7.652;2022-12-29T06:34:58;7.50;99.90
3752;DHT22;50827;47.014;7.652;2022-12-29T06:37:25;7.50;99.90
3752;DHT22;50827;47.014;7.652;2022-12-29T06:39:52;7.50;99.90
3752;DHT22;50827;47.014;7.652;2022-12-29T06:42:18;7.60;99.90
3752;DHT22;50827;47.014;7.652;2022-12-29T06:44:45;7.70;99.90
3752;DHT22;50827;47.014;7.652;2022-12-29T06:47:12;7.80;99.90
3752;DHT22;50827;47.014;7.652;2022-12-29T06:49:38;7.80;99.90
3752;DHT22;50827;47.014;7.652;2022-12-29T06:52:05;7.80;99.90
3752;DHT22;50827;47.014;7.652;2022-12-29T06:54:38;7.90;99.90
3752;DHT22;50827;47.014;7.652;2022-12-29T06:57:05;7.90;99.90
3752;DHT22;50827;47.014;7.652;2022-12-29T06:59:32;7.90;99.90
3752;DHT22;50827;47.014;7.652;2022-12-29T07:01:59;7.90;99.90
3752;DHT22;50827;47.014;7.652;2022-12-29T07:04:30;7.90;99.90
3752;DHT22;50827;47.014;7.652;2022-12-29T07:06:56;7.90;99.90
3752;DHT22;50827;47.014;7.652;2022-12-29T07:09:23;7.90;99.90
3752;DHT22;50827;47.014;7.652;2022-12-29T07:11:51;7.90;99.90
3752;DHT22;50827;47.014;7.652;2022-12-29T07:14:17;7.90;99.90
3752;DHT22;50827;47.014;7.652;2022-12-29T07:16:44;7.90;99.90
3752;DHT22;50827;47.014;7.652;2022-12-29T07:19:11;7.90;99.90
3752;DHT22;50827;47.014;7.652;2022-12-29T07:21:37;8.00;99.90
3752;DHT22;50827;47.014;7.652;2022-12-29T07:24:04;7.90;99.90
3752;DHT22;50827;47.014;7.652;2022-12-29T07:26:31;8.00;99.90
3752;DHT22;50827;47.014;7.652;2022-12-29T07:29:03;7.90;99.90
3752;DHT22;50827;47.014;7.652;2022-12-29T07:31:30;7.80;99.90
3752;DHT22;50827;47.014;7.652;2022-12-29T07:33:56;7.70;99.90
3752;DHT22;50827;47.014;7.652;2022-12-29T07:36:23;7.60;99.90
3752;DHT22;50827;47.014;7.652;2022-12-29T07:38:56;7.60;99.90
3752;DHT22;50827;47.014;7.652;2022-12-29T07:41:22;7.40;99.90
3752;DHT22;50827;47.014;7.652;2022-12-29T07:43:49;7.40;99.90
3752;DHT22;50827;47.014;7.652;2022-12-29T07:46:16;7.40;99.90
3752;DHT22;50827;47.014;7.652;2022-12-29T07:49:02;7.30;99.90
3752;DHT22;50827;47.014;7.652;2022-12-29T07:51:29;7.20;99.90
3752;DHT22;50827;47.014;7.652;2022-12-29T07:53:55;7.20;99.90
3752;DHT22;50827;47.014;7.652;2022-12-29T07:56:22;7.10;99.90
3752;DHT22;50827;47.014;7.652;2022-12-29T07:58:49;7.10;99.90
3752;DHT22;50827;47.014;7.652;2022-12-29T08:01:15;7.00;99.90
3752;DHT22;50827;47.014;7.652;2022-12-29T08:03:42;7.00;99.90
3752;DHT22;50827;47.014;7.652;2022-12-29T08:06:10;7.00;99.90
3752;DHT22;50827;47.014;7.652;2022-12-29T08:08:37;7.00;99.90
3752;DHT22;50827;47.014;7.652;2022-12-29T08:11:04;6.90;99.90
3752;DHT22;50827;47.014;7.652;2022-12-29T08:13:31;6.80;99.90
3752;DHT22;50827;47.014;7.652;2022-12-29T08:15:58;6.80;99.90
3752;DHT22;50827;47.014;7.652;2022-12-29T08:18:25;6.80;99.90
3752;DHT22;50827;47.014;7.652;2022-12-29T08:20:51;6.70;99.90
3752;DHT22;50827;47.014;7.652;2022-12-29T08:23:21;6.70;99.90
3752;DHT22;50827;47.014;7.652;2022-12-29T08:25:57;6.60;99.90
3752;DHT22;50827;47.014;7.652;2022-12-29T08:28:24;6.60;99.90
3752;DHT22;50827;47.014;7.652;2022-12-29T08:30:50;6.60;99.90
3752;DHT22;50827;47.014;7.652;2022-12-29T08:33:17;6.60;99.90
3752;DHT22;50827;47.014;7.652;2022-12-29T08:35:44;6.60;99.90
3752;DHT22;50827;47.014;7.652;2022-12-29T08:38:11;6.70;99.90
3752;DHT22;50827;47.014;7.652;2022-12-29T08:40:38;6.70;99.90
3752;DHT22;50827;47.014;7.652;2022-12-29T08:43:04;6.60;99.90
3752;DHT22;50827;47.014;7.652;2022-12-29T08:45:32;6.60;99.90
3752;DHT22;50827;47.014;7.652;2022-12-29T08:47:58;6.50;99.90
3752;DHT22;50827;47.014;7.652;2022-12-29T08:50:25;6.50;99.90
3752;DHT22;50827;47.014;7.652;2022-12-29T08:52:52;6.50;99.90
3752;DHT22;50827;47.014;7.652;2022-12-29T08:55:18;6.60;99.90
3752;DHT22;50827;47.014;7.652;2022-12-29T09:00:25;6.70;99.90
3752;DHT22;50827;47.014;7.652;2022-12-29T09:02:52;6.60;99.90
3752;DHT22;50827;47.014;7.652;2022-12-29T09:05:19;6.60;99.90
3752;DHT22;50827;47.014;7.652;2022-12-29T09:07:45;6.70;99.90
3752;DHT22;50827;47.014;7.652;2022-12-29T09:10:12;6.70;99.90
3752;DHT22;50827;47.014;7.652;2022-12-29T09:12:38;6.80;99.90
3752;DHT22;50827;47.014;7.652;2022-12-29T09:15:06;6.90;99.90
3752;DHT22;50827;47.014;7.652;2022-12-29T09:17:33;6.90;99.90
3752;DHT22;50827;47.014;7.652;2022-12-29T09:20:14;7.00;99.90
3752;DHT22;50827;47.014;7.652;2022-12-29T09:22:41;7.00;99.90
3752;DHT22;50827;47.014;7.652;2022-12-29T09:25:09;7.00;99.90
3752;DHT22;50827;47.014;7.652;2022-12-29T09:27:36;7.00;99.90
3752;DHT22;50827;47.014;7.652;2022-12-29T09:30:05;7.00;99.90
3752;DHT22;50827;47.014;7.652;2022-12-29T09:32:33;7.10;99.90
3752;DHT22;50827;47.014;7.652;2022-12-29T09:35:06;7.10;99.90
3752;DHT22;50827;47.014;7.652;2022-12-29T09:37:33;7.20;99.90
3752;DHT22;50827;47.014;7.652;2022-12-29T09:40:00;7.20;99.90
3752;DHT22;50827;47.014;7.652;2022-12-29T09:42:38;7.30;99.90
3752;DHT22;50827;47.014;7.652;2022-12-29T09:45:27;7.30;99.90
3752;DHT22;50827;47.014;7.652;2022-12-29T09:47:57;7.40;99.90
3752;DHT22;50827;47.014;7.652;2022-12-29T09:50:34;7.40;99.90
3752;DHT22;50827;47.014;7.652;2022-12-29T09:53:36;7.40;99.90
3752;DHT22;50827;47.014;7.652;2022-12-29T09:56:05;7.40;99.90
3752;DHT22;50827;47.014;7.652;2022-12-29T10:01:44;7.30;99.90
3752;DHT22;50827;47.014;7.652;2022-12-29T10:04:13;7.30;99.90
3752;DHT22;50827;47.014;7.652;2022-12-29T10:12:50;7.30;99.90
3752;DHT22;50827;47.014;7.652;2022-12-29T10:15:51;7.40;99.90
3752;DHT22;50827;47.014;7.652;2022-12-29T10:23:44;7.50;99.90
3752;DHT22;50827;47.014;7.652;2022-12-29T10:26:18;7.50;99.90
3752;DHT22;50827;47.014;7.652;2022-12-29T10:29:03;7.50;99.90
3752;DHT22;50827;47.014;7.652;2022-12-29T10:32:00;7.60;99.90
3752;DHT22;50827;47.014;7.652;2022-12-29T10:34:36;7.70;99.90
3752;DHT22;50827;47.014;7.652;2022-12-29T10:37:18;7.70;99.90
3752;DHT22;50827;47.014;7.652;2022-12-29T10:39:55;7.70;99.90
3752;DHT22;50827;47.014;7.652;2022-12-29T10:42:36;7.80;99.90
3752;DHT22;50827;47.014;7.652;2022-12-29T10:45:10;7.90;99.90
3752;DHT22;50827;47.014;7.652;2022-12-29T10:47:42;7.90;99.90
3752;DHT22;50827;47.014;7.652;2022-12-29T10:50:13;7.90;99.90
3752;DHT22;50827;47.014;7.652;2022-12-29T10:52:42;8.00;99.90
3752;DHT22;50827;47.014;7.652;2022-12-29T10:55:21;8.00;99.90
3752;DHT22;50827;47.014;7.652;2022-12-29T10:57:51;8.10;99.90
3752;DHT22;50827;47.014;7.652;2022-12-29T11:00:20;8.30;99.90
3752;DHT22;50827;47.014;7.652;2022-12-29T11:06:10;8.40;99.90
3752;DHT22;50827;47.014;7.652;2022-12-29T11:08:47;8.50;99.90
3752;DHT22;50827;47.014;7.652;2022-12-29T11:11:24;8.60;99.90
3752;DHT22;50827;47.014;7.652;2022-12-29T11:14:13;8.70;99.90
3752;DHT22;50827;47.014;7.652;2022-12-29T11:16:41;8.70;99.90
3752;DHT22;50827;47.014;7.652;2022-12-29T11:19:34;8.80;99.90
3752;DHT22;50827;47.014;7.652;2022-12-29T11:22:33;8.90;99.90
3752;DHT22;50827;47.014;7.652;2022-12-29T11:25:12;8.90;99.90
3752;DHT22;50827;47.014;7.652;2022-12-29T11:27:39;9.00;99.90
3752;DHT22;50827;47.014;7.652;2022-12-29T11:30:24;9.10;99.90
3752;DHT22;50827;47.014;7.652;2022-12-29T11:32:53;9.00;99.90
3752;DHT22;50827;47.014;7.652;2022-12-29T11:35:40;9.00;99.90
3752;DHT22;50827;47.014;7.652;2022-12-29T11:38:19;9.10;99.90
3752;DHT22;50827;47.014;7.652;2022-12-29T11:40:47;9.10;99.90
3752;DHT22;50827;47.014;7.652;2022-12-29T11:43:32;9.10;99.90
3752;DHT22;50827;47.014;7.652;2022-12-29T11:46:01;9.20;99.90
3752;DHT22;50827;47.014;7.652;2022-12-29T11:48:38;9.20;99.90
3752;DHT22;50827;47.014;7.652;2022-12-29T11:51:06;9.30;99.90
3752;DHT22;50827;47.014;7.652;2022-12-29T11:53:42;9.30;99.90
3752;DHT22;50827;47.014;7.652;2022-12-29T11:56:14;9.40;99.90
3752;DHT22;50827;47.014;7.652;2022-12-29T11:58:41;9.40;99.90
3752;DHT22;50827;47.014;7.652;2022-12-29T12:01:34;9.50;99.90
3752;DHT22;50827;47.014;7.652;2022-12-29T12:04:07;9.60;99.90
3752;DHT22;50827;47.014;7.652;2022-12-29T12:06:44;9.60;99.90
3752;DHT22;50827;47.014;7.652;2022-12-29T12:09:25;9.60;99.90
3752;DHT22;50827;47.014;7.652;2022-12-29T12:11:54;9.70;99.90
3752;DHT22;50827;47.014;7.652;2022-12-29T12:14:35;9.70;99.90
3752;DHT22;50827;47.014;7.652;2022-12-29T12:17:13;9.80;99.90
3752;DHT22;50827;47.014;7.652;2022-12-29T12:20:19;9.80;99.90
3752;DHT22;50827;47.014;7.652;2022-12-29T12:23:13;9.80;99.90
3752;DHT22;50827;47.014;7.652;2022-12-29T12:25:51;9.90;99.90
3752;DHT22;50827;47.014;7.652;2022-12-29T12:31:35;10.00;99.90
3752;DHT22;50827;47.014;7.652;2022-12-29T12:34:12;10.00;99.90
3752;DHT22;50827;47.014;7.652;2022-12-29T12:37:15;9.90;99.90
3752;DHT22;50827;47.014;7.652;2022-12-29T12:43:11;10.00;99.90
3752;DHT22;50827;47.014;7.652;2022-12-29T12:45:55;10.00;99.90
3752;DHT22;50827;47.014;7.652;2022-12-29T12:54:14;10.00;99.90
3752;DHT22;50827;47.014;7.652;2022-12-29T13:00:14;9.90;99.90
3752;DHT22;50827;47.014;7.652;2022-12-29T13:08:47;10.00;99.90
3752;DHT22;50827;47.014;7.652;2022-12-29T13:14:16;10.00;99.90
3752;DHT22;50827;47.014;7.652;2022-12-29T13:19:52;10.00;99.90
3752;DHT22;50827;47.014;7.652;2022-12-29T13:22:55;10.10;99.90
3752;DHT22;50827;47.014;7.652;2022-12-29T13:34:06;10.10;99.90
3752;DHT22;50827;47.014;7.652;2022-12-29T13:36:44;10.10;99.90
3752;DHT22;50827;47.014;7.652;2022-12-29T13:39:18;10.10;99.90
3752;DHT22;50827;47.014;7.652;2022-12-29T13:41:53;10.10;99.90
3752;DHT22;50827;47.014;7.652;2022-12-29T13:44:35;10.10;99.90
3752;DHT22;50827;47.014;7.652;2022-12-29T13:47:38;10.10;99.90
3752;DHT22;50827;47.014;7.652;2022-12-29T13:50:21;10.10;99.90
3752;DHT22;50827;47.014;7.652;2022-12-29T14:08:57;10.20;99.90
3752;DHT22;50827;47.014;7.652;2022-12-29T14:11:38;10.20;99.90
3752;DHT22;50827;47.014;7.652;2022-12-29T14:16:44;10.20;99.90
3752;DHT22;50827;47.014;7.652;2022-12-29T14:22:00;10.20;99.90
3752;DHT22;50827;47.014;7.652;2022-12-29T14:24:42;10.20;99.90
3752;DHT22;50827;47.014;7.652;2022-12-29T14:34:55;10.30;99.90
3752;DHT22;50827;47.014;7.652;2022-12-29T14:37:34;10.30;99.90
3752;DHT22;50827;47.014;7.652;2022-12-29T14:40:24;10.30;99.90
3752;DHT22;50827;47.014;7.652;2022-12-29T14:42:55;10.30;99.90
3752;DHT22;50827;47.014;7.652;2022-12-29T14:45:27;10.30;99.90
3752;DHT22;50827;47.014;7.652;2022-12-29T14:47:55;10.20;99.90
3752;DHT22;50827;47.014;7.652;2022-12-29T14:50:25;10.20;99.90
3752;DHT22;50827;47.014;7.652;2022-12-29T14:53:03;10.20;99.90
3752;DHT22;50827;47.014;7.652;2022-12-29T14:55:46;10.20;99.90
3752;DHT22;50827;47.014;7.652;2022-12-29T15:01:30;10.20;99.90
3752;DHT22;50827;47.014;7.652;2022-12-29T15:04:12;10.10;99.90
3752;DHT22;50827;47.014;7.652;2022-12-29T15:06:41;10.10;99.90
3752;DHT22;50827;47.014;7.652;2022-12-29T15:09:40;10.10;99.90
3752;DHT22;50827;47.014;7.652;2022-12-29T15:15:19;10.00;99.90
3752;DHT22;50827;47.014;7.652;2022-12-29T15:17:46;10.00;99.90
3752;DHT22;50827;47.014;7.652;2022-12-29T15:20:27;10.00;99.90
3752;DHT22;50827;47.014;7.652;2022-12-29T15:22:57;10.00;99.90
3752;DHT22;50827;47.014;7.652;2022-12-29T15:25:24;10.00;99.90
3752;DHT22;50827;47.014;7.652;2022-12-29T15:27:56;10.00;99.90
3752;DHT22;50827;47.014;7.652;2022-12-29T15:30:26;10.00;99.90
3752;DHT22;50827;47.014;7.652;2022-12-29T15:32:54;10.00;99.90
3752;DHT22;50827;47.014;7.652;2022-12-29T15:35:34;10.00;99.90
3752;DHT22;50827;47.014;7.652;2022-12-29T15:38:14;10.00;99.90
3752;DHT22;50827;47.014;7.652;2022-12-29T15:40:44;10.00;99.90
3752;DHT22;50827;47.014;7.652;2022-12-29T15:45:57;9.90;99.90
3752;DHT22;50827;47.014;7.652;2022-12-29T15:48:27;9.90;99.90
3752;DHT22;50827;47.014;7.652;2022-12-29T15:50:54;9.90;99.90
3752;DHT22;50827;47.014;7.652;2022-12-29T15:53:23;9.90;99.90
3752;DHT22;50827;47.014;7.652;2022-12-29T15:56:00;9.90;99.90
3752;DHT22;50827;47.014;7.652;2022-12-29T15:58:30;10.00;99.90
3752;DHT22;50827;47.014;7.652;2022-12-29T16:01:00;9.90;99.90
3752;DHT22;50827;47.014;7.652;2022-12-29T16:03:32;10.00;99.90
3752;DHT22;50827;47.014;7.652;2022-12-29T16:08:59;9.90;99.90
3752;DHT22;50827;47.014;7.652;2022-12-29T16:11:38;9.90;99.90
3752;DHT22;50827;47.014;7.652;2022-12-29T16:14:32;9.90;99.90
3752;DHT22;50827;47.014;7.652;2022-12-29T16:17:02;9.90;99.90
3752;DHT22;50827;47.014;7.652;2022-12-29T16:19:39;9.90;99.90
3752;DHT22;50827;47.014;7.652;2022-12-29T16:22:22;9.90;99.90
3752;DHT22;50827;47.014;7.652;2022-12-29T16:24:51;9.90;99.90
3752;DHT22;50827;47.014;7.652;2022-12-29T16:27:39;9.90;99.90
3752;DHT22;50827;47.014;7.652;2022-12-29T16:30:20;9.80;99.90
3752;DHT22;50827;47.014;7.652;2022-12-29T16:33:02;9.80;99.90
3752;DHT22;50827;47.014;7.652;2022-12-29T16:35:39;9.80;99.90
3752;DHT22;50827;47.014;7.652;2022-12-29T16:38:19;9.80;99.90
3752;DHT22;50827;47.014;7.652;2022-12-29T16:40:58;9.80;99.90
3752;DHT22;50827;47.014;7.652;2022-12-29T16:43:30;9.70;99.90
3752;DHT22;50827;47.014;7.652;2022-12-29T16:51:05;9.50;99.90
3752;DHT22;50827;47.014;7.652;2022-12-29T16:53:37;9.50;99.90
3752;DHT22;50827;47.014;7.652;2022-12-29T16:56:16;9.50;99.90
3752;DHT22;50827;47.014;7.652;2022-12-29T16:58:48;9.50;99.90
3752;DHT22;50827;47.014;7.652;2022-12-29T17:01:15;9.50;99.90
3752;DHT22;50827;47.014;7.652;2022-12-29T17:03:54;9.40;99.90
3752;DHT22;50827;47.014;7.652;2022-12-29T17:06:23;9.40;99.90
3752;DHT22;50827;47.014;7.652;2022-12-29T17:08:51;9.40;99.90
3752;DHT22;50827;47.014;7.652;2022-12-29T17:11:33;9.40;99.90
3752;DHT22;50827;47.014;7.652;2022-12-29T17:14:48;9.40;99.90
3752;DHT22;50827;47.014;7.652;2022-12-29T17:17:43;9.50;99.90
3752;DHT22;50827;47.014;7.652;2022-12-29T17:20:22;9.50;99.90
3752;DHT22;50827;47.014;7.652;2022-12-29T17:22:50;9.60;99.90
3752;DHT22;50827;47.014;7.652;2022-12-29T17:25:22;9.60;99.90
3752;DHT22;50827;47.014;7.652;2022-12-29T17:27:57;9.70;99.90
3752;DHT22;50827;47.014;7.652;2022-12-29T17:30:27;9.60;99.90
3752;DHT22;50827;47.014;7.652;2022-12-29T17:33:19;9.50;99.90
3752;DHT22;50827;47.014;7.652;2022-12-29T17:35:46;9.50;99.90
3752;DHT22;50827;47.014;7.652;2022-12-29T17:38:25;9.40;99.90
3752;DHT22;50827;47.014;7.652;2022-12-29T17:40:53;9.40;99.90
3752;DHT22;50827;47.014;7.652;2022-12-29T17:43:20;9.40;99.90
3752;DHT22;50827;47.014;7.652;2022-12-29T17:45:51;9.40;99.90
3752;DHT22;50827;47.014;7.652;2022-12-29T17:48:19;9.40;99.90
3752;DHT22;50827;47.014;7.652;2022-12-29T17:50:47;9.40;99.90
3752;DHT22;50827;47.014;7.652;2022-12-29T17:53:23;9.50;99.90
3752;DHT22;50827;47.014;7.652;2022-12-29T17:55:51;9.50;99.90
3752;DHT22;50827;47.014;7.652;2022-12-29T17:58:23;9.50;99.90
3752;DHT22;50827;47.014;7.652;2022-12-29T18:00:52;9.60;99.90
3752;DHT22;50827;47.014;7.652;2022-12-29T18:03:31;9.60;99.90
3752;DHT22;50827;47.014;7.652;2022-12-29T18:05:59;9.60;99.90
3752;DHT22;50827;47.014;7.652;2022-12-29T18:08:26;9.60;99.90
3752;DHT22;50827;47.014;7.652;2022-12-29T18:10:56;9.50;99.90
3752;DHT22;50827;47.014;7.652;2022-12-29T18:13:28;9.60;99.90
3752;DHT22;50827;47.014;7.652;2022-12-29T18:16:11;9.50;99.90
3752;DHT22;50827;47.014;7.652;2022-12-29T18:18:38;9.40;99.90
3752;DHT22;50827;47.014;7.652;2022-12-29T18:21:05;9.50;99.90
3752;DHT22;50827;47.014;7.652;2022-12-29T18:23:32;9.50;99.90
3752;DHT22;50827;47.014;7.652;2022-12-29T18:26:04;9.40;99.90
3752;DHT22;50827;47.014;7.652;2022-12-29T18:28:32;9.50;99.90
3752;DHT22;50827;47.014;7.652;2022-12-29T18:31:00;9.50;99.90
3752;DHT22;50827;47.014;7.652;2022-12-29T18:33:28;9.40;99.90
3752;DHT22;50827;47.014;7.652;2022-12-29T18:36:00;9.40;99.90
3752;DHT22;50827;47.014;7.652;2022-12-29T18:38:28;9.40;99.90
3752;DHT22;50827;47.014;7.652;2022-12-29T18:40:56;9.40;99.90
3752;DHT22;50827;47.014;7.652;2022-12-29T18:43:23;9.40;99.90
3752;DHT22;50827;47.014;7.652;2022-12-29T18:45:49;9.40;99.90
3752;DHT22;50827;47.014;7.652;2022-12-29T18:48:17;9.30;99.90